Time;durP1;ratioP1;P1;durP2;ratioP2;P2;SDS_P1;SDS_P2;PMS_P1;PMS_P2;Temp;Humidity;BMP_temperature;BMP_pressure;BME280_temperature;BME280_humidity;BME280_pressure;Samples;Min_cycle;Max_cycle;Signal;HPM_P1;HPM_P2
2021/07/17 06:21:56;;;;;;;25.60;7.38;;;18.50;99.90;;;;;;3610922;39;20406;-78
2021/07/17 06:24:22;;;;;;;22.17;7.05;;;18.70;99.90;;;;;;3593939;39;20048;-75
2021/07/17 06:26:57;;;;;;;17.80;5.90;;;18.70;99.90;;;;;;3599613;39;20071;-76
2021/07/17 06:29:23;;;;;;;28.58;6.68;;;18.80;99.90;;;;;;3595393;39;20088;-75
2021/07/17 06:31:49;;;;;;;18.67;6.60;;;18.90;99.90;;;;;;3601117;39;20040;-75
2021/07/17 06:34:15;;;;;;;20.33;5.85;;;18.80;99.90;;;;;;3595107;39;20042;-78
2021/07/17 06:36:41;;;;;;;17.75;5.32;;;18.80;99.90;;;;;;3610166;39;20051;-80
2021/07/17 06:39:06;;;;;;;15.65;6.10;;;18.90;99.90;;;;;;3605750;39;20032;-79
2021/07/17 06:41:32;;;;;;;16.88;5.32;;;18.90;99.90;;;;;;3592475;39;20199;-82
2021/07/17 06:43:58;;;;;;;23.10;6.03;;;19.00;99.90;;;;;;3597169;39;20152;-80
2021/07/17 06:46:24;;;;;;;22.83;6.10;;;19.30;99.90;;;;;;3604180;39;20400;-79
2021/07/17 06:48:50;;;;;;;13.07;5.30;;;19.10;99.90;;;;;;3597324;39;20048;-79
2021/07/17 06:51:16;;;;;;;12.52;4.07;;;19.10;99.90;;;;;;3594545;39;20062;-80
2021/07/17 06:53:41;;;;;;;19.67;5.60;;;19.50;99.90;;;;;;3592894;39;20049;-81
2021/07/17 06:56:07;;;;;;;24.90;5.45;;;19.50;99.90;;;;;;3599960;39;20043;-80
2021/07/17 06:58:33;;;;;;;16.10;4.70;;;19.70;99.90;;;;;;3601486;39;20384;-80
2021/07/17 07:00:58;;;;;;;19.88;6.15;;;19.70;99.90;;;;;;3605725;39;20105;-78
2021/07/17 07:03:24;;;;;;;16.17;5.95;;;19.60;99.90;;;;;;3599803;39;20051;-80
2021/07/17 07:05:50;;;;;;;13.25;3.65;;;19.70;99.90;;;;;;3598719;39;20048;-80
2021/07/17 07:08:16;;;;;;;21.63;4.75;;;20.20;99.90;;;;;;3597155;39;20036;-79
2021/07/17 07:10:41;;;;;;;17.48;3.75;;;19.70;99.90;;;;;;3596371;39;20266;-79
2021/07/17 07:13:13;;;;;;;10.15;3.72;;;19.80;99.90;;;;;;3597801;39;20085;-82
2021/07/17 07:15:38;;;;;;;16.30;4.28;;;20.00;99.90;;;;;;3586437;39;20050;-80
2021/07/17 07:18:06;;;;;;;11.50;4.30;;;20.00;99.90;;;;;;3601268;39;20052;-80
2021/07/17 07:20:32;;;;;;;14.35;3.85;;;20.00;99.90;;;;;;3595229;39;20056;-79
2021/07/17 07:22:59;;;;;;;14.57;3.90;;;20.00;99.90;;;;;;3585766;39;20116;-80
2021/07/17 07:25:25;;;;;;;13.30;4.07;;;20.40;99.90;;;;;;3586121;40;20048;-78
2021/07/17 07:27:51;;;;;;;13.70;3.58;;;20.20;99.90;;;;;;3599094;39;20138;-78
2021/07/17 07:30:18;;;;;;;10.00;3.38;;;20.20;99.90;;;;;;3590660;39;20281;-78
2021/07/17 07:32:44;;;;;;;17.00;3.40;;;20.10;99.90;;;;;;3580285;40;20483;-81
2021/07/17 07:35:10;;;;;;;13.85;3.28;;;20.30;99.90;;;;;;3593686;39;20054;-76
2021/07/17 07:37:35;;;;;;;11.77;3.15;;;20.50;99.90;;;;;;3593179;39;20224;-77
2021/07/17 07:40:03;;;;;;;10.20;3.20;;;20.20;99.90;;;;;;3589587;40;20309;-76
2021/07/17 07:42:29;;;;;;;13.50;3.63;;;20.20;99.90;;;;;;3586114;40;20080;-76
2021/07/17 07:44:55;;;;;;;10.00;3.35;;;20.30;99.90;;;;;;3588273;40;20426;-77
2021/07/17 07:47:23;;;;;;;19.17;3.85;;;20.30;99.90;;;;;;3584865;40;20344;-76
2021/07/17 07:49:52;;;;;;;10.82;3.30;;;20.30;99.90;;;;;;3574553;40;20067;-76
2021/07/17 07:52:18;;;;;;;13.45;3.15;;;20.70;99.90;;;;;;3584513;40;20049;-76
2021/07/17 07:54:47;;;;;;;11.45;2.55;;;20.70;99.90;;;;;;3585130;40;20056;-76
2021/07/17 07:57:13;;;;;;;8.93;3.17;;;20.60;99.90;;;;;;3593548;39;20098;-77
2021/07/17 07:59:38;;;;;;;13.20;3.65;;;20.60;99.90;;;;;;3590875;39;20056;-72
2021/07/17 08:02:04;;;;;;;7.93;2.33;;;20.70;99.90;;;;;;3585221;40;20133;-71
2021/07/17 08:04:30;;;;;;;8.73;3.22;;;20.80;99.90;;;;;;3586154;40;20071;-73
2021/07/17 08:06:56;;;;;;;13.88;2.97;;;20.80;99.90;;;;;;3591580;39;20065;-73
2021/07/17 08:09:21;;;;;;;9.98;2.85;;;21.10;99.90;;;;;;3591051;40;20044;-72
2021/07/17 08:11:47;;;;;;;12.93;2.92;;;21.20;99.90;;;;;;3587294;40;20056;-74
2021/07/17 08:14:13;;;;;;;5.75;2.42;;;21.50;99.90;;;;;;3592832;40;20084;-73
2021/07/17 08:16:39;;;;;;;10.65;2.60;;;21.30;99.90;;;;;;3583858;39;20158;-73
2021/07/17 08:19:05;;;;;;;7.20;2.53;;;21.20;99.90;;;;;;3588859;39;20367;-73
2021/07/17 08:21:30;;;;;;;8.05;2.28;;;21.30;99.90;;;;;;3589481;40;20420;-72
2021/07/17 08:23:56;;;;;;;8.70;2.40;;;21.50;99.90;;;;;;3592479;40;20036;-73
2021/07/17 08:26:23;;;;;;;6.88;2.58;;;21.40;99.90;;;;;;3594592;40;20160;-74
2021/07/17 08:28:49;;;;;;;8.80;2.17;;;21.60;99.90;;;;;;3585896;40;20052;-73
2021/07/17 08:31:15;;;;;;;7.43;2.60;;;21.50;99.90;;;;;;3583980;40;20330;-73
2021/07/17 08:33:40;;;;;;;8.02;2.78;;;21.80;99.90;;;;;;3583704;40;20080;-73
2021/07/17 08:36:06;;;;;;;8.43;1.70;;;21.60;99.90;;;;;;3584368;40;20132;-72
2021/07/17 08:38:32;;;;;;;9.80;2.13;;;21.80;99.90;;;;;;3590368;40;20052;-72
2021/07/17 08:41:00;;;;;;;7.45;2.10;;;21.60;99.90;;;;;;3578007;40;20048;-71
2021/07/17 08:43:26;;;;;;;6.50;1.85;;;21.70;99.90;;;;;;3584259;40;20153;-73
2021/07/17 08:45:52;;;;;;;7.45;1.85;;;21.90;99.90;;;;;;3575812;40;20653;-73
2021/07/17 08:48:21;;;;;;;9.07;2.45;;;22.10;99.90;;;;;;3587820;39;20059;-72
2021/07/17 08:50:48;;;;;;;7.22;2.10;;;22.00;99.90;;;;;;3594052;40;20051;-74
2021/07/17 08:53:17;;;;;;;7.85;2.30;;;22.10;99.90;;;;;;3590026;40;20052;-74
2021/07/17 08:55:43;;;;;;;12.95;2.25;;;22.30;99.90;;;;;;3583796;40;20049;-73
2021/07/17 08:58:09;;;;;;;6.85;2.20;;;22.50;99.90;;;;;;3588742;39;20093;-71
2021/07/17 09:00:41;;;;;;;5.55;1.63;;;22.70;99.90;;;;;;3587791;39;20053;-73
2021/07/17 09:03:12;;;;;;;10.23;2.03;;;22.60;99.90;;;;;;3587284;40;20134;-74
2021/07/17 09:05:42;;;;;;;6.57;1.88;;;22.90;99.90;;;;;;3584200;40;20052;-73
2021/07/17 09:08:19;;;;;;;5.88;1.67;;;22.80;99.90;;;;;;3587306;40;20072;-71
2021/07/17 09:10:54;;;;;;;7.18;1.88;;;22.80;99.90;;;;;;3593568;40;20048;-73
2021/07/17 09:13:25;;;;;;;7.50;2.58;;;23.30;99.90;;;;;;3589187;40;20057;-73
2021/07/17 09:15:51;;;;;;;10.45;2.35;;;23.70;99.90;;;;;;3583548;40;20161;-71
2021/07/17 09:18:34;;;;;;;7.97;2.35;;;23.80;99.90;;;;;;3587578;40;20596;-74
2021/07/17 09:21:32;;;;;;;9.13;2.33;;;23.60;99.90;;;;;;3594111;40;20044;-73
2021/07/17 09:24:04;;;;;;;8.82;2.17;;;24.00;99.90;;;;;;3582681;40;20138;-73
2021/07/17 09:26:34;;;;;;;6.15;1.65;;;24.40;99.90;;;;;;3583643;40;20052;-72
2021/07/17 09:29:06;;;;;;;6.88;1.98;;;24.00;99.90;;;;;;3583613;40;20052;-72
2021/07/17 09:31:55;;;;;;;4.10;1.98;;;24.00;99.90;;;;;;3583428;40;20102;-72
2021/07/17 09:34:28;;;;;;;9.30;2.22;;;24.40;99.90;;;;;;3582833;40;20409;-72
2021/07/17 09:36:58;;;;;;;;;;;24.20;99.90;;;;;;3584611;40;20052;-72
2021/07/17 09:39:40;;;;;;;6.45;1.85;;;24.40;99.90;;;;;;3583326;40;19943;-75
2021/07/17 09:42:13;;;;;;;6.20;1.55;;;25.00;99.90;;;;;;3593168;39;20044;-74
2021/07/17 09:44:40;;;;;;;6.00;1.98;;;24.90;99.90;;;;;;3593318;39;20066;-71
2021/07/17 09:47:19;;;;;;;4.03;1.25;;;24.80;99.90;;;;;;3586382;40;20059;-73
2021/07/17 09:49:45;;;;;;;4.70;1.55;;;25.00;99.90;;;;;;3587520;40;20106;-69
2021/07/17 09:52:12;;;;;;;6.78;1.65;;;25.10;99.90;;;;;;3590971;39;20521;-74
2021/07/17 09:54:57;;;;;;;6.10;1.42;;;25.10;99.90;;;;;;3589285;39;20071;-73
2021/07/17 09:57:30;;;;;;;4.47;1.58;;;25.30;99.90;;;;;;3590613;40;20064;-72
2021/07/17 10:00:04;;;;;;;9.18;1.95;;;25.80;99.90;;;;;;3586515;40;20344;-73
2021/07/17 10:02:30;;;;;;;5.78;1.45;;;25.70;99.90;;;;;;3585404;39;20121;-72
2021/07/17 10:04:56;;;;;;;5.18;1.85;;;25.30;99.90;;;;;;3591699;40;20044;-74
2021/07/17 10:07:21;;;;;;;6.65;1.48;;;26.10;99.90;;;;;;3590444;39;20060;-72
2021/07/17 10:09:50;;;;;;;6.38;2.08;;;25.80;99.90;;;;;;3593681;40;20048;-72
2021/07/17 10:12:16;;;;;;;5.63;1.70;;;26.10;99.90;;;;;;3592093;39;20133;-72
2021/07/17 10:14:42;;;;;;;3.70;1.20;;;25.40;99.90;;;;;;3583803;40;20065;-75
2021/07/17 10:17:16;;;;;;;3.65;1.23;;;25.10;99.90;;;;;;3589326;39;20490;-74
2021/07/17 10:19:43;;;;;;;5.28;1.30;;;25.10;99.90;;;;;;3584670;39;20040;-74
2021/07/17 10:22:11;;;;;;;5.85;1.27;;;24.60;99.90;;;;;;3587064;40;20401;-73
2021/07/17 10:24:37;;;;;;;6.63;1.73;;;25.00;99.90;;;;;;3592545;40;20101;-73
2021/07/17 10:27:05;;;;;;;7.22;2.00;;;24.80;99.90;;;;;;3585090;40;20580;-74
2021/07/17 10:29:31;;;;;;;5.10;1.40;;;25.00;99.90;;;;;;3592526;40;20056;-72
2021/07/17 10:31:59;;;;;;;3.85;1.15;;;25.10;99.90;;;;;;3593592;40;20421;-72
2021/07/17 10:34:26;;;;;;;7.55;2.03;;;25.00;99.90;;;;;;3585825;39;20133;-73
2021/07/17 10:37:04;;;;;;;4.03;1.45;;;24.70;99.90;;;;;;3587563;40;20048;-73
2021/07/17 10:39:35;;;;;;;4.93;1.58;;;24.60;99.90;;;;;;3584937;40;20048;-73
2021/07/17 10:42:18;;;;;;;3.95;1.40;;;24.60;99.90;;;;;;3590531;39;20056;-72
2021/07/17 10:44:49;;;;;;;4.38;1.10;;;25.10;99.90;;;;;;3592070;40;20039;-73
2021/07/17 10:47:16;;;;;;;5.47;1.63;;;25.10;99.90;;;;;;3587558;40;20048;-73
2021/07/17 10:49:47;;;;;;;4.13;1.10;;;24.60;99.90;;;;;;3593701;39;20075;-74
2021/07/17 10:52:13;;;;;;;6.68;1.25;;;24.40;99.90;;;;;;3593486;39;20128;-73
2021/07/17 10:54:39;;;;;;;4.82;1.30;;;24.90;99.90;;;;;;3600590;39;20375;-73
2021/07/17 10:57:07;;;;;;;3.10;0.82;;;25.10;99.90;;;;;;3592493;39;20051;-73
2021/07/17 10:59:33;;;;;;;3.95;1.10;;;25.50;99.90;;;;;;3585541;39;20050;-73
2021/07/17 11:02:07;;;;;;;4.38;1.10;;;24.40;99.90;;;;;;3587131;39;20052;-73
2021/07/17 11:04:38;;;;;;;3.20;1.13;;;24.70;99.90;;;;;;3590023;40;20064;-73
2021/07/17 11:07:16;;;;;;;3.25;0.80;;;24.30;99.90;;;;;;3587379;40;20052;-73
2021/07/17 11:09:58;;;;;;;3.53;1.17;;;24.50;99.90;;;;;;3590290;40;20378;-72
2021/07/17 11:12:30;;;;;;;2.35;0.98;;;24.50;99.90;;;;;;3591518;40;20302;-72
2021/07/17 11:15:19;;;;;;;4.20;0.63;;;24.90;99.90;;;;;;3585256;40;20059;-71
2021/07/17 11:17:52;;;;;;;5.15;2.60;;;25.40;99.90;;;;;;3593551;40;20059;-72
2021/07/17 11:20:19;;;;;;;3.25;1.60;;;25.70;99.60;;;;;;3594090;40;20254;-72
2021/07/17 11:22:45;;;;;;;2.08;0.70;;;25.30;99.90;;;;;;3594476;40;20076;-71
2021/07/17 11:25:16;;;;;;;3.42;1.10;;;25.70;98.30;;;;;;3585902;40;20332;-71
2021/07/17 11:27:43;;;;;;;3.67;1.02;;;25.30;98.00;;;;;;3584105;40;20142;-71
2021/07/17 11:30:19;;;;;;;5.30;1.30;;;25.30;96.80;;;;;;3591445;40;20052;-71
2021/07/17 11:33:03;;;;;;;3.13;0.80;;;25.40;99.00;;;;;;3588533;40;20113;-71
2021/07/17 11:35:33;;;;;;;2.45;1.25;;;25.00;98.50;;;;;;3585873;39;20076;-71
2021/07/17 11:37:59;;;;;;;4.55;1.48;;;25.60;98.10;;;;;;3589953;39;20060;-72
2021/07/17 11:40:25;;;;;;;4.90;1.15;;;25.90;98.10;;;;;;3594045;39;20282;-72
2021/07/17 11:42:51;;;;;;;2.70;0.70;;;25.60;94.90;;;;;;3592026;39;20063;-72
2021/07/17 11:45:16;;;;;;;3.80;1.10;;;25.20;94.00;;;;;;3589956;39;20052;-73
2021/07/17 11:47:43;;;;;;;2.85;0.90;;;24.90;96.50;;;;;;3587364;39;20418;-71
2021/07/17 11:50:09;;;;;;;3.35;1.13;;;25.50;95.60;;;;;;3594112;40;20052;-72
2021/07/17 11:52:37;;;;;;;2.33;0.82;;;25.30;98.90;;;;;;3592782;40;20044;-72
2021/07/17 11:55:05;;;;;;;2.80;0.90;;;25.10;98.60;;;;;;3594482;40;20051;-73
2021/07/17 11:57:33;;;;;;;3.05;0.98;;;25.70;99.90;;;;;;3590257;39;20346;-73
2021/07/17 12:00:20;;;;;;;4.05;1.23;;;25.50;99.90;;;;;;3588813;40;20405;-74
2021/07/17 12:02:53;;;;;;;3.53;1.05;;;25.30;99.90;;;;;;3590970;40;20047;-73
2021/07/17 12:05:19;;;;;;;3.42;1.55;;;24.90;99.90;;;;;;3588602;40;20056;-72
2021/07/17 12:07:47;;;;;;;2.38;1.35;;;24.60;99.90;;;;;;3587485;40;20059;-73
2021/07/17 12:10:14;;;;;;;3.28;1.20;;;24.50;99.90;;;;;;3581642;40;20051;-74
2021/07/17 12:12:42;;;;;;;5.13;1.30;;;24.80;99.90;;;;;;3597837;39;20304;-72
2021/07/17 12:15:14;;;;;;;2.88;0.98;;;24.60;99.90;;;;;;3588440;40;20309;-74
2021/07/17 12:17:48;;;;;;;;;;;24.50;99.90;;;;;;3586255;40;20072;-77
2021/07/17 12:20:29;;;;;;;4.32;1.38;;;24.60;99.90;;;;;;3588095;40;19944;-75
2021/07/17 12:22:59;;;;;;;4.07;1.40;;;25.60;99.90;;;;;;3594454;40;20062;-75
2021/07/17 12:25:33;;;;;;;3.80;0.98;;;25.30;99.90;;;;;;3594135;39;20119;-75
2021/07/17 12:28:07;;;;;;;3.60;1.20;;;25.50;99.90;;;;;;3604483;39;20428;-74
2021/07/17 12:30:39;;;;;;;3.30;0.95;;;25.10;99.90;;;;;;3595356;39;20064;-75
